Observation data for Levelland on 07/18/2019      Previous  Date  Next       Current Mesonet Observations  Soil Data  Daily Summary Page  Observations in Plain Language
KLD1 180500Z 18016G21KT 27/15 A2998 RMK A01 T02670150  RH  051%=      5-min Rain = 0
KLD1 180505Z 18014KT 26/15 A2998 RMK A01 T02640149  RH  052%=      5-min Rain = 0
KLD1 180510Z 18015G20KT 26/14 A2998 RMK A01 T02600144  RH  051%=      5-min Rain = 0
KLD1 180515Z 18015G20KT 26/14 A2998 RMK A01 T02580140  RH  050%=      5-min Rain = 0
KLD1 180520Z 18013G18KT 26/14 A2998 RMK A01 T02560140  RH  051%=      5-min Rain = 0
KLD1 180525Z 17012KT 25/14 A2999 RMK A01 T02530141  RH  052%=      5-min Rain = 0
KLD1 180530Z 18013KT 25/14 A2999 RMK A01 T02530141  RH  052%=      5-min Rain = 0
KLD1 180535Z 18013G18KT 25/14 A2999 RMK A01 T02510142  RH  053%=      5-min Rain = 0
KLD1 180540Z 18013KT 25/14 A2999 RMK A01 T02500144  RH  054%=      5-min Rain = 0
KLD1 180545Z 18013KT 25/15 A2999 RMK A01 T02500146  RH  055%=      5-min Rain = 0
KLD1 180550Z 18013KT 25/15 A2999 RMK A01 T02490147  RH  055%=      5-min Rain = 0
KLD1 180555Z 17012KT 25/15 A2999 RMK A01 T02490148  RH  056%=      5-min Rain = 0
KLD1 180600Z 17012KT 25/15 A2999 RMK A01 T02480150  RH  057%=      5-min Rain = 0
KLD1 180605Z 17011KT 25/15 A2999 RMK A01 T02480150  RH  057%=      5-min Rain = 0
KLD1 180610Z 18012KT 25/15 A2999 RMK A01 T02490152  RH  057%=      5-min Rain = 0
KLD1 180615Z 18012KT 25/15 A2999 RMK A01 T02490153  RH  058%=      5-min Rain = 0
KLD1 180620Z 18012KT 25/15 A2999 RMK A01 T02500154  RH  058%=      5-min Rain = 0
KLD1 180625Z 18012KT 25/16 A2999 RMK A01 T02510155  RH  058%=      5-min Rain = 0
KLD1 180630Z 18010KT 25/16 A30 RMK A01 T02500155  RH  058%=      5-min Rain = 0
KLD1 180635Z 18011KT 25/16 A30 RMK A01 T02500155  RH  058%=      5-min Rain = 0
KLD1 180640Z 18011KT 25/16 A30 RMK A01 T02500155  RH  058%=      5-min Rain = 0
KLD1 180645Z 18011KT 25/16 A30 RMK A01 T02490155  RH  058%=      5-min Rain = 0
KLD1 180650Z 18010KT 25/16 A30 RMK A01 T02490156  RH  059%=      5-min Rain = 0
KLD1 180655Z 18009KT 25/16 A30 RMK A01 T02480156  RH  059%=      5-min Rain = 0
KLD1 180700Z 19009KT 25/16 A3001 RMK A01 T02470156  RH  059%=      5-min Rain = 0
KLD1 180705Z 18009KT 25/16 A30 RMK A01 T02470156  RH  059%=      5-min Rain = 0
KLD1 180710Z 18010KT 25/16 A30 RMK A01 T02480157  RH  059%=      5-min Rain = 0
KLD1 180715Z 18010KT 25/16 A3001 RMK A01 T02480157  RH  060%=      5-min Rain = 0
KLD1 180720Z 19009KT 25/16 A3001 RMK A01 T02470157  RH  060%=      5-min Rain = 0
KLD1 180725Z 19009KT 25/16 A3001 RMK A01 T02460158  RH  061%=      5-min Rain = 0
KLD1 180730Z 18009KT 25/16 A3001 RMK A01 T02450158  RH  061%=      5-min Rain = 0
KLD1 180735Z 18009KT 25/16 A3001 RMK A01 T02450159  RH  062%=      5-min Rain = 0
KLD1 180740Z 19009KT 25/16 A3001 RMK A01 T02450159  RH  062%=      5-min Rain = 0
KLD1 180745Z 19009KT 24/16 A3001 RMK A01 T02440160  RH  062%=      5-min Rain = 0
KLD1 180750Z 19009KT 24/16 A3001 RMK A01 T02440160  RH  062%=      5-min Rain = 0
KLD1 180755Z 19009KT 24/16 A3001 RMK A01 T02430160  RH  063%=      5-min Rain = 0
KLD1 180800Z 19008KT 24/16 A3001 RMK A01 T02410160  RH  063%=      5-min Rain = 0
KLD1 180805Z 19008KT 24/16 A3001 RMK A01 T02400160  RH  064%=      5-min Rain = 0
KLD1 180810Z 19008KT 24/16 A3001 RMK A01 T02390161  RH  064%=      5-min Rain = 0
KLD1 180815Z 19007KT 24/16 A3001 RMK A01 T02380161  RH  065%=      5-min Rain = 0
KLD1 180820Z 19008KT 24/16 A3001 RMK A01 T02380161  RH  065%=      5-min Rain = 0
KLD1 180825Z 19008KT 24/16 A3001 RMK A01 T02370161  RH  065%=      5-min Rain = 0
KLD1 180830Z 18007KT 24/16 A3001 RMK A01 T02360161  RH  066%=      5-min Rain = 0
KLD1 180835Z 18007KT 24/16 A3001 RMK A01 T02350161  RH  066%=      5-min Rain = 0
KLD1 180840Z 18007KT 24/16 A3001 RMK A01 T02350162  RH  067%=      5-min Rain = 0
KLD1 180845Z 18007KT 23/16 A3001 RMK A01 T02340162  RH  067%=      5-min Rain = 0
KLD1 180850Z 18007KT 23/16 A3001 RMK A01 T02330161  RH  067%=      5-min Rain = 0
KLD1 180855Z 18008KT 23/16 A3001 RMK A01 T02320162  RH  068%=      5-min Rain = 0
KLD1 180900Z 19008KT 23/16 A3001 RMK A01 T02310162  RH  068%=      5-min Rain = 0
KLD1 180905Z 18007KT 23/16 A3001 RMK A01 T02300161  RH  068%=      5-min Rain = 0
KLD1 180910Z 18007KT 23/16 A3001 RMK A01 T02280161  RH  069%=      5-min Rain = 0
KLD1 180915Z 18007KT 23/16 A3001 RMK A01 T02280161  RH  069%=      5-min Rain = 0
KLD1 180920Z 18007KT 23/16 A3001 RMK A01 T02270161  RH  070%=      5-min Rain = 0
KLD1 180925Z 18006KT 23/16 A3001 RMK A01 T02270161  RH  070%=      5-min Rain = 0
KLD1 180930Z 18006KT 23/16 A3001 RMK A01 T02260161  RH  070%=      5-min Rain = 0
KLD1 180935Z 18006KT 22/16 A3001 RMK A01 T02240161  RH  071%=      5-min Rain = 0
KLD1 180940Z 18006KT 22/16 A3001 RMK A01 T02230161  RH  071%=      5-min Rain = 0
KLD1 180945Z 17007KT 22/16 A3001 RMK A01 T02230161  RH  071%=      5-min Rain = 0
KLD1 180950Z 17007KT 22/16 A3001 RMK A01 T02230160  RH  071%=      5-min Rain = 0
KLD1 180955Z 17007KT 22/16 A3001 RMK A01 T02230160  RH  071%=      5-min Rain = 0
KLD1 181000Z 17007KT 22/16 A30 RMK A01 T02240160  RH  070%=      5-min Rain = 0
KLD1 181005Z 16008KT 22/16 A30 RMK A01 T02240160  RH  070%=      5-min Rain = 0
KLD1 181010Z 17008KT 22/16 A30 RMK A01 T02240160  RH  071%=      5-min Rain = 0
KLD1 181015Z 17007KT 22/16 A3001 RMK A01 T02230161  RH  071%=      5-min Rain = 0
KLD1 181020Z 17007KT 22/16 A3001 RMK A01 T02220160  RH  071%=      5-min Rain = 0
KLD1 181025Z 16008KT 22/16 A3001 RMK A01 T02220160  RH  071%=      5-min Rain = 0
KLD1 181030Z 17008KT 22/16 A3001 RMK A01 T02220160  RH  071%=      5-min Rain = 0
KLD1 181035Z 17009KT 22/16 A30 RMK A01 T02230160  RH  071%=      5-min Rain = 0
KLD1 181040Z 17008KT 22/16 A30 RMK A01 T02230159  RH  071%=      5-min Rain = 0
KLD1 181045Z 17009KT 22/16 A30 RMK A01 T02230159  RH  070%=      5-min Rain = 0
KLD1 181050Z 17010KT 22/16 A30 RMK A01 T02240158  RH  069%=      5-min Rain = 0
KLD1 181055Z 17009KT 22/16 A30 RMK A01 T02240158  RH  069%=      5-min Rain = 0
KLD1 181100Z 17008KT 22/16 A30 RMK A01 T02220158  RH  070%=      5-min Rain = 0
KLD1 181105Z 17008KT 22/16 A30 RMK A01 T02200157  RH  071%=      5-min Rain = 0
KLD1 181110Z 17008KT 22/16 A30 RMK A01 T02190157  RH  071%=      5-min Rain = 0
KLD1 181115Z 18009KT 22/16 A30 RMK A01 T02190156  RH  071%=      5-min Rain = 0
KLD1 181120Z 18009KT 22/16 A30 RMK A01 T02200156  RH  070%=      5-min Rain = 0
KLD1 181125Z 18010KT 22/16 A30 RMK A01 T02210155  RH  069%=      5-min Rain = 0
KLD1 181130Z 18009KT 22/16 A30 RMK A01 T02200155  RH  070%=      5-min Rain = 0
KLD1 181135Z 18008KT 22/16 A3001 RMK A01 T02190155  RH  070%=      5-min Rain = 0
KLD1 181140Z 18009KT 22/15 A3001 RMK A01 T02180154  RH  070%=      5-min Rain = 0
KLD1 181145Z 17009KT 22/15 A30 RMK A01 T02170154  RH  070%=      5-min Rain = 0
KLD1 181200Z 17011KT 22/15 A30 RMK A01 T02200152  RH  068%=      5-min Rain = 0
KLD1 181205Z 17012KT 22/15 A30 RMK A01 T02220152  RH  068%=      5-min Rain = 0
KLD1 181210Z 17010KT 22/15 A30 RMK A01 T02220151  RH  067%=      5-min Rain = 0
KLD1 181215Z 17010KT 22/15 A30 RMK A01 T02230152  RH  067%=      5-min Rain = 0
KLD1 181220Z 17011KT 22/15 A30 RMK A01 T02240151  RH  066%=      5-min Rain = 0
KLD1 181225Z 17011KT 22/15 A3001 RMK A01 T02240152  RH  066%=      5-min Rain = 0
KLD1 181230Z 17012KT 23/15 A30 RMK A01 T02250152  RH  066%=      5-min Rain = 0
KLD1 181235Z 17011KT 23/15 A30 RMK A01 T02260152  RH  066%=      5-min Rain = 0
KLD1 181240Z 17012KT 23/15 A30 RMK A01 T02270153  RH  066%=      5-min Rain = 0
KLD1 181245Z 17013KT 23/15 A30 RMK A01 T02280153  RH  065%=      5-min Rain = 0
KLD1 181250Z 18013KT 23/15 A30 RMK A01 T02300153  RH  065%=      5-min Rain = 0
KLD1 181255Z 17013KT 23/15 A30 RMK A01 T02310154  RH  064%=      5-min Rain = 0
KLD1 181300Z 17014G19KT 23/15 A30 RMK A01 T02330154  RH  064%=      5-min Rain = 0
KLD1 181305Z 17013KT 24/15 A30 RMK A01 T02350154  RH  063%=      5-min Rain = 0
KLD1 181310Z 18013G18KT 24/15 A3001 RMK A01 T02370154  RH  063%=      5-min Rain = 0
KLD1 181315Z 18014G19KT 24/15 A3001 RMK A01 T02390154  RH  062%=      5-min Rain = 0
KLD1 181320Z 18014G21KT 24/15 A3001 RMK A01 T02420154  RH  061%=      5-min Rain = 0
KLD1 181325Z 18015KT 25/15 A3001 RMK A01 T02450153  RH  059%=      5-min Rain = 0
KLD1 181330Z 18016G23KT 25/15 A3001 RMK A01 T02470152  RH  058%=      5-min Rain = 0
KLD1 181335Z 18015G21KT 25/15 A3001 RMK A01 T02500153  RH  057%=      5-min Rain = 0
KLD1 181340Z 18015G22KT 25/15 A3001 RMK A01 T02530153  RH  056%=      5-min Rain = 0
KLD1 181345Z 18016KT 26/15 A3001 RMK A01 T02550152  RH  055%=      5-min Rain = 0
KLD1 181350Z 18015G22KT 26/15 A3001 RMK A01 T02570152  RH  055%=      5-min Rain = 0
KLD1 181355Z 18017G23KT 26/15 A3001 RMK A01 T02570152  RH  055%=      5-min Rain = 0
KLD1 181400Z 18017KT 26/15 A3001 RMK A01 T02590153  RH  054%=      5-min Rain = 0
KLD1 181405Z 18016G21KT 26/15 A30 RMK A01 T02610154  RH  054%=      5-min Rain = 0
KLD1 181410Z 18016KT 26/15 A30 RMK A01 T02630154  RH  053%=      5-min Rain = 0
KLD1 181415Z 19015G21KT 27/15 A30 RMK A01 T02660154  RH  053%=      5-min Rain = 0
KLD1 181420Z 19016G22KT 27/15 A30 RMK A01 T02680154  RH  052%=      5-min Rain = 0
KLD1 181425Z 19018G24KT 27/15 A30 RMK A01 T02690153  RH  051%=      5-min Rain = 0
KLD1 181430Z 19017G22KT 27/15 A30 RMK A01 T02710154  RH  051%=      5-min Rain = 0
KLD1 181435Z 19016G22KT 27/15 A30 RMK A01 T02730154  RH  050%=      5-min Rain = 0
KLD1 181440Z 18017KT 28/15 A30 RMK A01 T02770154  RH  049%=      5-min Rain = 0
KLD1 181445Z 19016G21KT 28/15 A30 RMK A01 T02780154  RH  049%=      5-min Rain = 0
KLD1 181450Z 19017KT 28/15 A2999 RMK A01 T02800153  RH  048%=      5-min Rain = 0
KLD1 181455Z 19016G22KT 28/15 A2999 RMK A01 T02830153  RH  047%=      5-min Rain = 0
KLD1 181500Z 20015G22KT 29/15 A30 RMK A01 T02850154  RH  047%=      5-min Rain = 0
KLD1 181505Z 20016G21KT 29/15 A30 RMK A01 T02860153  RH  046%=      5-min Rain = 0
KLD1 181510Z 19017KT 29/15 A30 RMK A01 T02880153  RH  046%=      5-min Rain = 0
KLD1 181515Z 20017KT 29/15 A30 RMK A01 T02900153  RH  045%=      5-min Rain = 0
KLD1 181520Z 19017G22KT 29/15 A2999 RMK A01 T02900152  RH  045%=      5-min Rain = 0
KLD1 181525Z 19015G20KT 30/15 A2999 RMK A01 T02950154  RH  044%=      5-min Rain = 0
KLD1 181530Z 19015KT 30/15 A2999 RMK A01 T02970154  RH  044%=      5-min Rain = 0
KLD1 181535Z 20017KT 30/15 A2999 RMK A01 T02970153  RH  044%=      5-min Rain = 0
KLD1 181540Z 20015KT 30/15 A2999 RMK A01 T03010154  RH  043%=      5-min Rain = 0
KLD1 181545Z 21015G20KT 30/15 A2999 RMK A01 T03030152  RH  042%=      5-min Rain = 0
KLD1 181550Z 21016KT 31/15 A2999 RMK A01 T03050152  RH  041%=      5-min Rain = 0
KLD1 181555Z 20015G21KT 31/15 A2999 RMK A01 T03060151  RH  041%=      5-min Rain = 0
KLD1 181600Z 20016KT 31/15 A2999 RMK A01 T03080152  RH  041%=      5-min Rain = 0
KLD1 181605Z 20016KT 31/15 A2999 RMK A01 T03120153  RH  040%=      5-min Rain = 0
KLD1 181610Z 20016G21KT 31/15 A2999 RMK A01 T03130152  RH  040%=      5-min Rain = 0
KLD1 181615Z 21017G22KT 32/15 A2999 RMK A01 T03150150  RH  039%=      5-min Rain = 0
KLD1 181620Z 21017G22KT 32/15 A2999 RMK A01 T03170147  RH  037%=      5-min Rain = 0
KLD1 181625Z 20015KT 32/15 A2999 RMK A01 T03200150  RH  037%=      5-min Rain = 0
KLD1 181630Z 20015G20KT 32/15 A2999 RMK A01 T03230149  RH  037%=      5-min Rain = 0
KLD1 181635Z 21016KT 32/15 A2999 RMK A01 T03230147  RH  036%=      5-min Rain = 0
KLD1 181640Z 20014G19KT 33/15 A2999 RMK A01 T03270149  RH  036%=      5-min Rain = 0
KLD1 181645Z 21014G20KT 33/15 A2999 RMK A01 T03300149  RH  035%=      5-min Rain = 0
KLD1 181650Z 21014G19KT 33/15 A2999 RMK A01 T03300146  RH  034%=      5-min Rain = 0
KLD1 181655Z 20012G18KT 33/15 A2999 RMK A01 T03340147  RH  034%=      5-min Rain = 0
KLD1 181700Z 20013G19KT 34/15 A2999 RMK A01 T03350147  RH  034%=      5-min Rain = 0
KLD1 181705Z 20012G19KT 34/15 A2998 RMK A01 T03410149  RH  033%=      5-min Rain = 0
KLD1 181710Z 20014G19KT 34/14 A2998 RMK A01 T03390143  RH  032%=      5-min Rain = 0
KLD1 181715Z 19015G22KT 34/14 A2998 RMK A01 T03380142  RH  032%=      5-min Rain = 0
KLD1 181720Z 20014KT 34/14 A2998 RMK A01 T03390142  RH  032%=      5-min Rain = 0
KLD1 181725Z 20013G18KT 34/14 A2998 RMK A01 T03440143  RH  031%=      5-min Rain = 0
KLD1 181730Z 21014G20KT 35/14 A2998 RMK A01 T03450136  RH  030%=      5-min Rain = 0
KLD1 181735Z 20013G18KT 35/14 A2998 RMK A01 T03460142  RH  031%=      5-min Rain = 0
KLD1 181740Z 21013G19KT 35/14 A2998 RMK A01 T03480138  RH  029%=      5-min Rain = 0
KLD1 181745Z 20013G21KT 35/14 A2997 RMK A01 T03530139  RH  029%=      5-min Rain = 0
KLD1 181750Z 21011G17KT 35/14 A2997 RMK A01 T03520138  RH  029%=      5-min Rain = 0
KLD1 181755Z 21013G18KT 36/14 A2997 RMK A01 T03560136  RH  028%=      5-min Rain = 0
KLD1 181800Z 21014G19KT 35/14 A2997 RMK A01 T03540138  RH  028%=      5-min Rain = 0
KLD1 181805Z 20012G17KT 35/14 A2997 RMK A01 T03540140  RH  029%=      5-min Rain = 0
KLD1 181810Z 19014G20KT 36/14 A2996 RMK A01 T03590140  RH  028%=      5-min Rain = 0
KLD1 181815Z 18013G19KT 36/14 A2996 RMK A01 T03560139  RH  028%=      5-min Rain = 0
KLD1 181820Z 21013KT 36/14 A2996 RMK A01 T03620138  RH  027%=      5-min Rain = 0
KLD1 181825Z 19011G16KT 36/14 A2996 RMK A01 T03590136  RH  028%=      5-min Rain = 0
KLD1 181830Z 20013G19KT 36/14 A2996 RMK A01 T03620140  RH  028%=      5-min Rain = 0
KLD1 181835Z 20011G16KT 36/14 A2995 RMK A01 T03630136  RH  027%=      5-min Rain = 0
KLD1 181840Z 19015KT 36/14 A2995 RMK A01 T03640137  RH  027%=      5-min Rain = 0
KLD1 181845Z 19015KT 36/13 A2995 RMK A01 T03610132  RH  026%=      5-min Rain = 0
KLD1 181850Z 19017G24KT 36/13 A2995 RMK A01 T03610133  RH  027%=      5-min Rain = 0
KLD1 181855Z 19014G19KT 36/13 A2995 RMK A01 T03640134  RH  026%=      5-min Rain = 0
KLD1 181900Z 20015G20KT 36/13 A2995 RMK A01 T03640130  RH  026%=      5-min Rain = 0
KLD1 181905Z 19013G21KT 37/13 A2995 RMK A01 T03690132  RH  025%=      5-min Rain = 0
KLD1 181910Z 18014G19KT 37/13 A2994 RMK A01 T03660129  RH  025%=      5-min Rain = 0
KLD1 181915Z 17015G20KT 37/13 A2994 RMK A01 T03650126  RH  025%=      5-min Rain = 0
KLD1 181920Z 19016G22KT 37/12 A2994 RMK A01 T03660124  RH  024%=      5-min Rain = 0
KLD1 181925Z 19012G19KT 37/13 A2994 RMK A01 T03690125  RH  024%=      5-min Rain = 0
KLD1 181930Z 18013G19KT 37/13 A2994 RMK A01 T03690126  RH  024%=      5-min Rain = 0
KLD1 181935Z 19013G21KT 37/13 A2994 RMK A01 T03720126  RH  024%=      5-min Rain = 0
KLD1 181940Z 18013G19KT 37/13 A2994 RMK A01 T03690125  RH  024%=      5-min Rain = 0
KLD1 181945Z 20014G19KT 37/13 A2993 RMK A01 T03720125  RH  024%=      5-min Rain = 0
KLD1 181950Z 19014G20KT 37/13 A2993 RMK A01 T03700125  RH  024%=      5-min Rain = 0
KLD1 181955Z 19014G21KT 38/13 A2993 RMK A01 T03750127  RH  024%=      5-min Rain = 0
KLD1 182000Z 19013G21KT 37/13 A2993 RMK A01 T03740127  RH  024%=      5-min Rain = 0
KLD1 182005Z 19014G22KT 38/13 A2993 RMK A01 T03750125  RH  023%=      5-min Rain = 0
KLD1 182010Z 19014G22KT 37/13 A2993 RMK A01 T03740125  RH  024%=      5-min Rain = 0
KLD1 182015Z 18012G18KT 38/13 A2993 RMK A01 T03770127  RH  023%=      5-min Rain = 0
KLD1 182020Z 18012G18KT 38/13 A2992 RMK A01 T03750126  RH  024%=      5-min Rain = 0
KLD1 182025Z 18015G21KT 38/13 A2992 RMK A01 T03760125  RH  023%=      5-min Rain = 0
KLD1 182030Z 18013G19KT 37/13 A2992 RMK A01 T03740126  RH  024%=      5-min Rain = 0
KLD1 182035Z 18014G19KT 38/13 A2992 RMK A01 T03780126  RH  023%=      5-min Rain = 0
KLD1 182040Z 19011KT 38/13 A2992 RMK A01 T03780126  RH  023%=      5-min Rain = 0
KLD1 182045Z 19014G20KT 37/12 A2992 RMK A01 T03740124  RH  023%=      5-min Rain = 0
KLD1 182050Z 19014G19KT 38/12 A2992 RMK A01 T03750122  RH  023%=      5-min Rain = 0
KLD1 182055Z 19011G18KT 38/13 A2992 RMK A01 T03790125  RH  023%=      5-min Rain = 0
KLD1 182100Z 20016G21KT 38/12 A2992 RMK A01 T03810122  RH  022%=      5-min Rain = 0
KLD1 182105Z 19013G20KT 38/12 A2992 RMK A01 T03810122  RH  022%=      5-min Rain = 0
KLD1 182110Z 19013G18KT 38/12 A2991 RMK A01 T03810119  RH  022%=      5-min Rain = 0
KLD1 182115Z 18013G20KT 38/12 A2991 RMK A01 T03780122  RH  022%=      5-min Rain = 0
KLD1 182120Z 17014G22KT 38/12 A2991 RMK A01 T03760120  RH  022%=      5-min Rain = 0
KLD1 182125Z 19012KT 38/12 A2991 RMK A01 T03750122  RH  023%=      5-min Rain = 0
KLD1 182130Z 20014G21KT 38/12 A2991 RMK A01 T03800123  RH  022%=      5-min Rain = 0
KLD1 182135Z 21014G20KT 38/12 A2991 RMK A01 T03790122  RH  022%=      5-min Rain = 0
KLD1 182140Z 18016G25KT 38/13 A299 RMK A01 T03760125  RH  023%=      5-min Rain = 0
KLD1 182145Z 17015G25KT 38/13 A299 RMK A01 T03770125  RH  023%=      5-min Rain = 0
KLD1 182150Z 17017G23KT 38/13 A299 RMK A01 T03780127  RH  023%=      5-min Rain = 0
KLD1 182155Z 16015G22KT 38/13 A299 RMK A01 T03750125  RH  023%=      5-min Rain = 0
KLD1 182200Z 17015G24KT 38/13 A299 RMK A01 T03750126  RH  023%=      5-min Rain = 0
KLD1 182205Z 20016G21KT 38/13 A299 RMK A01 T03780125  RH  023%=      5-min Rain = 0
KLD1 182210Z 19013G19KT 38/12 A299 RMK A01 T03770124  RH  023%=      5-min Rain = 0
KLD1 182215Z 17015G20KT 38/13 A299 RMK A01 T03760127  RH  024%=      5-min Rain = 0
KLD1 182220Z 19013G23KT 37/12 A2989 RMK A01 T03740121  RH  023%=      5-min Rain = 0
KLD1 182225Z 16016G23KT 37/12 A2989 RMK A01 T03730124  RH  023%=      5-min Rain = 0
KLD1 182230Z 18016G23KT 37/12 A2989 RMK A01 T03710123  RH  023%=      5-min Rain = 0
KLD1 182235Z 19016G21KT 37/12 A2989 RMK A01 T03740124  RH  023%=      5-min Rain = 0
KLD1 182240Z 18016G22KT 37/12 A2989 RMK A01 T03730123  RH  023%=      5-min Rain = 0
KLD1 182245Z 19014KT 37/12 A2989 RMK A01 T03720124  RH  023%=      5-min Rain = 0
KLD1 182250Z 19016G23KT 37/12 A2989 RMK A01 T03710122  RH  023%=      5-min Rain = 0
KLD1 182255Z 18014G20KT 37/12 A2989 RMK A01 T03690120  RH  023%=      5-min Rain = 0
KLD1 182300Z 17014KT 37/12 A2989 RMK A01 T03690121  RH  024%=      5-min Rain = 0
KLD1 182305Z 18012G18KT 37/12 A2989 RMK A01 T03700123  RH  024%=      5-min Rain = 0
KLD1 182310Z 17015G20KT 37/12 A2989 RMK A01 T03700123  RH  024%=      5-min Rain = 0
KLD1 182315Z 17016G21KT 37/12 A2988 RMK A01 T03680123  RH  024%=      5-min Rain = 0
KLD1 182320Z 18014KT 37/12 A2988 RMK A01 T03680124  RH  024%=      5-min Rain = 0
KLD1 182325Z 18015G22KT 37/13 A2988 RMK A01 T03670126  RH  025%=      5-min Rain = 0
KLD1 182330Z 18015G20KT 37/13 A2988 RMK A01 T03660125  RH  024%=      5-min Rain = 0
KLD1 182335Z 18013G18KT 37/13 A2988 RMK A01 T03660128  RH  025%=      5-min Rain = 0
KLD1 182340Z 17013G20KT 37/13 A2988 RMK A01 T03670130  RH  025%=      5-min Rain = 0
KLD1 182345Z 16014G20KT 37/13 A2988 RMK A01 T03650131  RH  026%=      5-min Rain = 0
KLD1 182350Z 17017KT 36/13 A2987 RMK A01 T03630129  RH  026%=      5-min Rain = 0
KLD1 182355Z 17018G24KT 36/13 A2988 RMK A01 T03620128  RH  026%=      5-min Rain = 0
KLD1 190000Z 17017G23KT 36/13 A2988 RMK A01 T03600127  RH  026%=      5-min Rain = 0
KLD1 190005Z 17016G21KT 36/13 A2988 RMK A01 T03600129  RH  026%=      5-min Rain = 0
KLD1 190010Z 18014G21KT 36/13 A2988 RMK A01 T03600128  RH  026%=      5-min Rain = 0
KLD1 190015Z 17016G23KT 36/13 A2988 RMK A01 T03600128  RH  026%=      5-min Rain = 0
KLD1 190020Z 18014G21KT 36/13 A2988 RMK A01 T03580129  RH  026%=      5-min Rain = 0
KLD1 190025Z 17016G22KT 36/13 A2988 RMK A01 T03560127  RH  026%=      5-min Rain = 0
KLD1 190030Z 17016KT 36/13 A2988 RMK A01 T03560127  RH  026%=      5-min Rain = 0
KLD1 190035Z 17014G20KT 36/13 A2988 RMK A01 T03550128  RH  027%=      5-min Rain = 0
KLD1 190040Z 18016KT 35/12 A2988 RMK A01 T03540124  RH  026%=      5-min Rain = 0
KLD1 190045Z 17013G18KT 35/13 A2988 RMK A01 T03520125  RH  026%=      5-min Rain = 0
KLD1 190050Z 17014G19KT 35/13 A2988 RMK A01 T03520125  RH  027%=      5-min Rain = 0
KLD1 190055Z 17015G20KT 35/12 A2988 RMK A01 T03510123  RH  026%=      5-min Rain = 0
KLD1 190100Z 17015G20KT 35/12 A2988 RMK A01 T03500123  RH  027%=      5-min Rain = 0
KLD1 190105Z 17013G20KT 35/13 A2988 RMK A01 T03480126  RH  027%=      5-min Rain = 0
KLD1 190110Z 17015G22KT 35/12 A2989 RMK A01 T03470124  RH  027%=      5-min Rain = 0
KLD1 190115Z 17015G21KT 35/12 A2989 RMK A01 T03460124  RH  027%=      5-min Rain = 0
KLD1 190120Z 17015KT 34/13 A2989 RMK A01 T03440125  RH  028%=      5-min Rain = 0
KLD1 190125Z 17015G20KT 34/13 A2989 RMK A01 T03430125  RH  028%=      5-min Rain = 0
KLD1 190130Z 17013G18KT 34/13 A2989 RMK A01 T03400126  RH  029%=      5-min Rain = 0
KLD1 190135Z 17014G19KT 34/13 A2989 RMK A01 T03390125  RH  028%=      5-min Rain = 0
KLD1 190140Z 17013G18KT 34/13 A2989 RMK A01 T03370125  RH  029%=      5-min Rain = 0
KLD1 190145Z 17014KT 34/13 A2989 RMK A01 T03360125  RH  029%=      5-min Rain = 0
KLD1 190150Z 17012G17KT 33/13 A2989 RMK A01 T03330125  RH  029%=      5-min Rain = 0
KLD1 190155Z 16011KT 33/13 A2989 RMK A01 T03310125  RH  030%=      5-min Rain = 0
KLD1 190200Z 17011KT 33/13 A2989 RMK A01 T03280125  RH  030%=      5-min Rain = 0
KLD1 190205Z 16012KT 33/13 A2989 RMK A01 T03270125  RH  030%=      5-min Rain = 0
KLD1 190210Z 16011KT 33/13 A2989 RMK A01 T03250125  RH  031%=      5-min Rain = 0
KLD1 190215Z 16011KT 32/13 A2989 RMK A01 T03230125  RH  031%=      5-min Rain = 0
KLD1 190220Z 16011KT 32/13 A2989 RMK A01 T03200125  RH  032%=      5-min Rain = 0
KLD1 190225Z 16011KT 32/13 A2989 RMK A01 T03190125  RH  032%=      5-min Rain = 0
KLD1 190230Z 16010KT 32/12 A299 RMK A01 T03180124  RH  032%=      5-min Rain = 0
KLD1 190235Z 16010KT 32/12 A299 RMK A01 T03170124  RH  032%=      5-min Rain = 0
KLD1 190240Z 16010KT 32/12 A299 RMK A01 T03150124  RH  032%=      5-min Rain = 0
KLD1 190245Z 16010G15KT 31/13 A299 RMK A01 T03130125  RH  033%=      5-min Rain = 0
KLD1 190250Z 16010KT 31/12 A299 RMK A01 T03110124  RH  033%=      5-min Rain = 0
KLD1 190255Z 16010KT 31/13 A299 RMK A01 T03100125  RH  033%=      5-min Rain = 0
KLD1 190300Z 16008KT 31/13 A299 RMK A01 T03070126  RH  034%=      5-min Rain = 0
KLD1 190305Z 16010KT 31/13 A2991 RMK A01 T03050126  RH  035%=      5-min Rain = 0
KLD1 190310Z 16009KT 30/13 A2991 RMK A01 T03030127  RH  035%=      5-min Rain = 0
KLD1 190315Z 16009KT 30/13 A2991 RMK A01 T03020127  RH  036%=      5-min Rain = 0
KLD1 190320Z 16010KT 30/13 A2991 RMK A01 T03020127  RH  035%=      5-min Rain = 0
KLD1 190325Z 16012KT 30/13 A2991 RMK A01 T03020127  RH  035%=      5-min Rain = 0
KLD1 190330Z 16013G18KT 30/13 A2991 RMK A01 T03040128  RH  035%=      5-min Rain = 0
KLD1 190335Z 16012G17KT 30/13 A2992 RMK A01 T03040129  RH  035%=      5-min Rain = 0
KLD1 190340Z 16013KT 31/13 A2992 RMK A01 T03050130  RH  036%=      5-min Rain = 0
KLD1 190345Z 17014G20KT 31/13 A2992 RMK A01 T03050131  RH  036%=      5-min Rain = 0
KLD1 190350Z 17014KT 31/13 A2992 RMK A01 T03050133  RH  036%=      5-min Rain = 0
KLD1 190355Z 17014G19KT 30/13 A2993 RMK A01 T03040134  RH  037%=      5-min Rain = 0
KLD1 190400Z 17013KT 30/14 A2993 RMK A01 T03030136  RH  038%=      5-min Rain = 0
KLD1 190405Z 17014G19KT 30/14 A2993 RMK A01 T03020137  RH  038%=      5-min Rain = 0
KLD1 190410Z 17013KT 30/14 A2993 RMK A01 T03010139  RH  039%=      5-min Rain = 0
KLD1 190415Z 17013KT 30/14 A2993 RMK A01 T03000140  RH  039%=      5-min Rain = 0
KLD1 190420Z 17013G18KT 30/14 A2993 RMK A01 T02980141  RH  040%=      5-min Rain = 0
KLD1 190425Z 17013G18KT 30/14 A2993 RMK A01 T02970142  RH  040%=      5-min Rain = 0
KLD1 190430Z 17013KT 30/14 A2993 RMK A01 T02970142  RH  041%=      5-min Rain = 0
KLD1 190435Z 17013G18KT 30/14 A2993 RMK A01 T02950142  RH  041%=      5-min Rain = 0
KLD1 190440Z 17013G18KT 29/14 A2994 RMK A01 T02940143  RH  041%=      5-min Rain = 0
KLD1 190445Z 17013KT 29/14 A2994 RMK A01 T02930143  RH  042%=      5-min Rain = 0
KLD1 190450Z 17013G19KT 29/14 A2994 RMK A01 T02920144  RH  042%=      5-min Rain = 0
KLD1 190455Z 17012G17KT 29/15 A2994 RMK A01 T02910145  RH  043%=      5-min Rain = 0

Page generated in 0.0168 seconds.